Time;durP1;ratioP1;P1;durP2;ratioP2;P2;SDS_P1;SDS_P2;PMS_P1;PMS_P2;Temp;Humidity;BMP_temperature;BMP_pressure;BME280_temperature;BME280_humidity;BME280_pressure;Samples;Min_cycle;Max_cycle;Signal;HPM_P1;HPM_P2
2023/10/28 00:00:48;;;;;;;1.70;1.27;;;8.60;99.90;;;;;;4969485;28;20042;-83
2023/10/28 00:03:15;;;;;;;1.93;1.20;;;8.80;99.90;;;;;;4974001;28;20647;-83
2023/10/28 00:05:41;;;;;;;2.23;1.33;;;8.90;99.90;;;;;;4973977;28;20080;-83
2023/10/28 00:08:07;;;;;;;1.83;1.07;;;8.90;99.90;;;;;;4973699;28;20509;-84
2023/10/28 00:10:34;;;;;;;3.13;1.30;;;9.00;99.90;;;;;;4973594;28;21590;-82
2023/10/28 00:12:59;;;;;;;3.20;1.40;;;9.00;99.90;;;;;;4973819;28;20030;-82
2023/10/28 00:15:26;;;;;;;2.60;1.20;;;8.90;99.90;;;;;;4978563;28;20053;-81
2023/10/28 00:17:51;;;;;;;2.50;1.27;;;8.90;99.90;;;;;;4971962;28;20035;-82
2023/10/28 00:20:18;;;;;;;2.47;1.23;;;8.90;99.90;;;;;;4972184;28;20031;-81
2023/10/28 00:22:45;;;;;;;3.80;1.10;;;8.80;99.90;;;;;;4972866;28;21312;-82
2023/10/28 00:25:13;;;;;;;2.57;1.10;;;8.80;99.90;;;;;;4972831;28;20027;-82
2023/10/28 00:27:42;;;;;;;2.00;1.17;;;8.80;99.90;;;;;;4971703;28;20109;-84
2023/10/28 00:30:09;;;;;;;4.57;1.07;;;8.80;99.90;;;;;;4971917;28;20078;-82
2023/10/28 00:32:35;;;;;;;2.27;1.00;;;8.80;99.90;;;;;;4972063;28;20034;-81
2023/10/28 00:35:01;;;;;;;1.37;1.00;;;8.80;99.90;;;;;;4971166;28;20033;-82
2023/10/28 00:37:27;;;;;;;2.70;1.00;;;8.80;99.90;;;;;;4971433;28;20030;-81
2023/10/28 00:39:52;;;;;;;1.23;0.83;;;8.80;99.90;;;;;;4971786;28;20034;-82
2023/10/28 00:42:18;;;;;;;3.37;1.10;;;8.80;99.90;;;;;;4970004;28;20074;-82
2023/10/28 00:44:44;;;;;;;1.27;0.90;;;8.70;99.90;;;;;;4970469;28;20114;-81
2023/10/28 00:47:12;;;;;;;1.43;0.87;;;8.70;99.90;;;;;;4972127;28;20035;-81
2023/10/28 00:49:39;;;;;;;0.83;0.77;;;8.70;99.90;;;;;;4972877;28;20081;-81
2023/10/28 00:52:05;;;;;;;1.43;0.77;;;8.70;99.90;;;;;;4971317;28;20030;-82
2023/10/28 00:54:30;;;;;;;1.10;0.90;;;8.70;99.90;;;;;;4970766;28;20027;-82
2023/10/28 00:56:57;;;;;;;2.27;0.80;;;8.70;99.90;;;;;;4969930;28;20056;-82
2023/10/28 00:59:23;;;;;;;0.87;0.80;;;8.80;99.90;;;;;;4970423;28;20046;-82
2023/10/28 01:01:51;;;;;;;0.73;0.60;;;8.80;99.90;;;;;;4969883;28;20606;-83
2023/10/28 01:04:17;;;;;;;0.83;0.73;;;8.80;99.90;;;;;;4970550;28;20049;-82
2023/10/28 01:06:43;;;;;;;1.03;0.70;;;8.80;99.90;;;;;;4970078;28;20077;-82
2023/10/28 01:09:08;;;;;;;0.90;0.67;;;8.80;99.90;;;;;;4970208;28;20026;-82
2023/10/28 01:11:39;;;;;;;2.00;1.00;;;8.80;99.90;;;;;;4969506;28;20026;-85
2023/10/28 01:14:07;;;;;;;0.83;0.60;;;8.80;99.90;;;;;;4968699;28;20054;-83
2023/10/28 01:16:33;;;;;;;1.17;0.80;;;8.80;99.90;;;;;;4968881;28;20156;-82
2023/10/28 01:19:00;;;;;;;1.23;0.63;;;8.80;99.90;;;;;;4969507;28;20062;-82
2023/10/28 01:21:26;;;;;;;0.80;0.53;;;8.90;99.90;;;;;;4969045;28;20175;-82
2023/10/28 01:23:52;;;;;;;1.57;0.80;;;8.90;99.90;;;;;;4969332;28;20027;-82
2023/10/28 01:26:18;;;;;;;1.30;0.70;;;8.90;99.90;;;;;;4974119;28;20042;-82
2023/10/28 01:28:44;;;;;;;0.97;0.60;;;8.90;99.90;;;;;;4971398;28;20042;-82
2023/10/28 01:31:10;;;;;;;2.17;0.70;;;8.90;99.90;;;;;;4972808;28;20033;-83
2023/10/28 01:33:35;;;;;;;1.17;0.73;;;8.90;99.90;;;;;;4972465;28;20545;-82
2023/10/28 01:36:01;;;;;;;0.70;0.60;;;8.90;99.90;;;;;;4971392;28;20019;-82
2023/10/28 01:38:26;;;;;;;2.70;0.80;;;9.00;99.90;;;;;;4973497;28;20034;-83
2023/10/28 01:40:52;;;;;;;3.07;0.77;;;9.00;99.90;;;;;;4972982;28;20030;-83
2023/10/28 01:43:21;;;;;;;1.37;0.70;;;9.00;99.90;;;;;;4973270;28;20042;-83
2023/10/28 01:45:46;;;;;;;0.57;0.57;;;9.00;99.90;;;;;;4973756;28;20030;-83
2023/10/28 01:48:14;;;;;;;3.10;0.80;;;9.10;99.90;;;;;;4975359;28;20038;-82
2023/10/28 01:50:39;;;;;;;1.07;0.70;;;9.10;99.90;;;;;;4973780;28;20031;-84
2023/10/28 01:53:05;;;;;;;1.80;0.70;;;9.10;99.90;;;;;;4975747;28;20097;-84
2023/10/28 01:55:32;;;;;;;1.83;0.80;;;9.00;99.90;;;;;;4976381;28;20034;-83
2023/10/28 01:57:57;;;;;;;0.87;0.70;;;9.00;99.90;;;;;;4988679;28;20023;-83
2023/10/28 02:00:26;;;;;;;0.87;0.60;;;9.10;99.90;;;;;;4994524;28;20028;-84
2023/10/28 02:02:52;;;;;;;1.17;0.80;;;9.10;99.90;;;;;;4982363;28;20472;-83
2023/10/28 02:05:18;;;;;;;1.20;0.77;;;9.10;99.90;;;;;;4974841;28;20019;-85
2023/10/28 02:07:44;;;;;;;2.17;0.83;;;9.10;99.90;;;;;;4974408;28;20101;-83
2023/10/28 02:10:09;;;;;;;2.23;0.87;;;9.10;99.90;;;;;;4974627;28;20022;-83
2023/10/28 02:12:35;;;;;;;2.33;0.83;;;9.00;99.90;;;;;;4970492;28;20031;-83
2023/10/28 02:15:07;;;;;;;2.30;1.47;;;9.10;99.90;;;;;;4969863;28;20046;-84
2023/10/28 02:17:32;;;;;;;1.67;0.83;;;9.00;99.90;;;;;;4971595;28;20397;-84
2023/10/28 02:19:58;;;;;;;2.60;0.80;;;9.10;99.90;;;;;;4970913;28;20030;-83
2023/10/28 02:22:23;;;;;;;1.97;0.90;;;9.10;99.90;;;;;;4971165;28;20065;-83
2023/10/28 02:24:49;;;;;;;4.57;1.20;;;9.10;99.90;;;;;;4970780;28;20022;-83
2023/10/28 02:27:15;;;;;;;0.50;0.50;;;9.10;99.90;;;;;;4971249;28;20062;-83
2023/10/28 02:29:40;;;;;;;2.73;0.97;;;9.10;99.90;;;;;;4971481;28;20430;-84
2023/10/28 02:32:08;;;;;;;3.50;0.90;;;9.10;99.90;;;;;;4971448;28;20149;-84
2023/10/28 02:34:34;;;;;;;2.70;0.70;;;9.20;99.90;;;;;;4972613;28;20027;-84
2023/10/28 02:36:59;;;;;;;3.17;0.77;;;9.10;99.90;;;;;;4973316;28;20071;-84
2023/10/28 02:39:26;;;;;;;3.47;0.80;;;9.10;99.90;;;;;;4970787;28;20030;-84
2023/10/28 02:41:52;;;;;;;1.80;0.90;;;9.10;99.90;;;;;;4971052;28;20494;-85
2023/10/28 02:44:18;;;;;;;2.77;1.23;;;9.10;99.90;;;;;;4970759;28;20034;-84
2023/10/28 02:46:44;;;;;;;3.57;1.00;;;9.10;99.90;;;;;;4970108;28;20030;-84
2023/10/28 02:49:11;;;;;;;2.23;0.93;;;9.10;99.90;;;;;;4970651;28;20041;-84
2023/10/28 02:51:37;;;;;;;1.80;0.70;;;9.10;99.90;;;;;;4970714;28;20033;-84
2023/10/28 02:54:03;;;;;;;3.30;0.80;;;9.10;99.90;;;;;;4971119;28;20034;-84
2023/10/28 02:56:29;;;;;;;1.67;1.00;;;9.10;99.90;;;;;;4970179;28;20045;-84
2023/10/28 02:58:55;;;;;;;2.50;0.90;;;9.10;99.90;;;;;;4970444;28;20035;-84
2023/10/28 03:01:20;;;;;;;2.50;1.00;;;9.00;99.90;;;;;;4971097;28;20034;-82
2023/10/28 03:03:46;;;;;;;5.07;1.10;;;9.00;99.90;;;;;;4972305;28;20026;-84
2023/10/28 03:06:12;;;;;;;2.33;0.97;;;9.00;99.90;;;;;;4972389;28;20149;-84
2023/10/28 03:08:38;;;;;;;2.70;1.10;;;9.00;99.90;;;;;;4974122;28;20062;-84
2023/10/28 03:11:04;;;;;;;2.33;1.00;;;9.00;99.90;;;;;;4975279;28;20044;-84
2023/10/28 03:13:30;;;;;;;3.43;1.33;;;8.90;99.90;;;;;;4973381;28;20034;-84
2023/10/28 03:15:56;;;;;;;3.17;0.90;;;8.90;99.90;;;;;;4954785;28;20030;-83
2023/10/28 03:18:22;;;;;;;1.63;0.90;;;8.90;99.90;;;;;;4972481;28;20045;-84
2023/10/28 03:20:48;;;;;;;2.50;1.00;;;8.90;99.90;;;;;;4971283;28;20031;-85
2023/10/28 03:23:14;;;;;;;2.93;1.00;;;8.90;99.90;;;;;;4973027;28;20401;-84
2023/10/28 03:25:39;;;;;;;3.73;1.10;;;8.90;99.90;;;;;;4971609;28;20027;-84
2023/10/28 03:28:05;;;;;;;2.30;1.10;;;8.90;99.90;;;;;;4971462;28;20035;-84
2023/10/28 03:30:31;;;;;;;3.57;1.50;;;8.90;99.90;;;;;;4972006;28;20033;-84
2023/10/28 03:32:57;;;;;;;1.77;0.97;;;8.80;99.90;;;;;;4971119;28;20065;-85
2023/10/28 03:35:23;;;;;;;4.23;0.97;;;8.90;99.90;;;;;;4969296;28;20027;-85
2023/10/28 03:37:48;;;;;;;1.77;1.00;;;8.90;99.90;;;;;;4971461;28;20026;-84
2023/10/28 03:40:14;;;;;;;2.47;1.10;;;8.90;99.90;;;;;;4972113;28;20041;-85
2023/10/28 03:42:39;;;;;;;3.13;1.20;;;9.00;99.90;;;;;;4972369;28;20051;-84
2023/10/28 03:45:07;;;;;;;1.37;0.90;;;9.00;99.90;;;;;;4971167;28;20049;-83
2023/10/28 03:47:33;;;;;;;4.57;1.20;;;9.00;99.90;;;;;;4972395;28;20105;-85
2023/10/28 03:49:59;;;;;;;3.80;1.00;;;9.00;99.90;;;;;;4971341;28;20142;-84
2023/10/28 03:52:25;;;;;;;1.87;0.90;;;9.00;99.90;;;;;;4972030;28;20035;-83
2023/10/28 03:54:51;;;;;;;4.53;1.10;;;9.00;99.90;;;;;;4971285;28;20098;-83
2023/10/28 03:57:16;;;;;;;2.10;0.90;;;9.00;99.90;;;;;;4970889;28;20058;-83
2023/10/28 03:59:42;;;;;;;3.53;1.37;;;9.00;99.90;;;;;;4971366;28;20141;-83
2023/10/28 04:02:08;;;;;;;2.60;1.10;;;9.00;99.90;;;;;;4972434;28;20540;-84
2023/10/28 04:04:33;;;;;;;1.77;0.87;;;9.00;99.90;;;;;;4972644;28;20118;-84
2023/10/28 04:06:59;;;;;;;3.33;0.93;;;9.00;99.90;;;;;;4971422;28;20117;-85
2023/10/28 04:09:24;;;;;;;2.23;0.90;;;9.00;99.90;;;;;;4971070;28;20126;-84
2023/10/28 04:11:50;;;;;;;1.63;0.80;;;9.00;99.90;;;;;;4974219;28;20066;-85
2023/10/28 04:14:16;;;;;;;2.40;0.90;;;9.00;99.90;;;;;;4970432;28;20042;-85
2023/10/28 04:16:42;;;;;;;2.70;0.90;;;9.10;99.90;;;;;;4972321;28;20038;-84
2023/10/28 04:19:07;;;;;;;1.90;0.80;;;9.10;99.90;;;;;;4973331;28;20065;-84
2023/10/28 04:21:33;;;;;;;1.50;0.93;;;9.10;99.90;;;;;;4973057;28;20031;-85
2023/10/28 04:23:59;;;;;;;2.93;1.13;;;9.10;99.90;;;;;;4971332;28;20050;-84
2023/10/28 04:26:24;;;;;;;1.93;0.90;;;9.10;99.90;;;;;;4969557;28;20737;-84
2023/10/28 04:28:50;;;;;;;1.70;0.90;;;9.10;99.90;;;;;;4971436;28;20034;-84
2023/10/28 04:31:16;;;;;;;1.87;0.90;;;9.10;99.90;;;;;;4970913;28;20118;-84
2023/10/28 04:33:41;;;;;;;2.13;0.93;;;9.10;99.90;;;;;;4970842;28;20091;-84
2023/10/28 04:36:10;;;;;;;2.13;0.80;;;9.10;99.90;;;;;;4969258;28;20038;-84
2023/10/28 04:38:39;;;;;;;1.40;0.70;;;9.10;99.90;;;;;;4969782;28;20045;-84
2023/10/28 04:41:04;;;;;;;2.43;0.90;;;9.10;99.90;;;;;;4971243;28;20039;-84
2023/10/28 04:43:30;;;;;;;1.50;0.70;;;9.10;99.90;;;;;;4970276;28;20046;-83
2023/10/28 04:45:55;;;;;;;4.03;0.97;;;9.00;99.90;;;;;;4970934;28;20023;-84
2023/10/28 04:48:21;;;;;;;3.03;1.07;;;9.10;99.90;;;;;;4973899;28;20161;-84
2023/10/28 04:50:50;;;;;;;3.90;0.70;;;9.10;99.90;;;;;;4977391;28;20093;-83
2023/10/28 04:53:15;;;;;;;2.57;0.90;;;9.00;99.90;;;;;;4981962;28;20026;-84
2023/10/28 04:55:43;;;;;;;1.90;0.97;;;9.10;99.90;;;;;;4985251;28;20034;-83
2023/10/28 04:58:10;;;;;;;1.93;0.80;;;9.00;99.90;;;;;;4985694;28;20053;-84
2023/10/28 05:00:35;;;;;;;3.73;1.30;;;9.00;99.90;;;;;;4973494;28;20485;-84
2023/10/28 05:03:02;;;;;;;4.83;1.00;;;9.00;99.90;;;;;;4971694;28;20041;-84
2023/10/28 05:05:28;;;;;;;0.87;0.67;;;8.90;99.90;;;;;;4971078;28;20111;-84
2023/10/28 05:07:53;;;;;;;2.50;0.90;;;8.90;99.90;;;;;;4970932;28;20118;-85
2023/10/28 05:10:19;;;;;;;10.63;2.43;;;8.90;99.90;;;;;;4970512;28;20022;-85
2023/10/28 05:12:45;;;;;;;2.70;0.90;;;8.80;99.90;;;;;;4969038;28;20038;-84
2023/10/28 05:15:11;;;;;;;2.80;1.00;;;8.80;99.90;;;;;;4969005;28;20566;-84
2023/10/28 05:17:37;;;;;;;1.27;0.80;;;8.70;99.90;;;;;;4970131;28;20037;-84
2023/10/28 05:20:06;;;;;;;3.90;1.10;;;8.70;99.90;;;;;;4969792;28;20034;-84
2023/10/28 05:22:36;;;;;;;2.03;0.70;;;8.60;99.90;;;;;;4973660;28;20034;-84
2023/10/28 05:25:05;;;;;;;2.73;0.83;;;8.60;99.90;;;;;;4973162;28;20082;-84
2023/10/28 05:27:31;;;;;;;2.10;0.90;;;8.50;99.90;;;;;;4974195;28;20053;-84
2023/10/28 05:29:57;;;;;;;2.43;0.90;;;8.50;99.90;;;;;;4974184;28;20049;-84
2023/10/28 05:32:22;;;;;;;1.37;0.80;;;8.50;99.90;;;;;;4977936;28;20088;-84
2023/10/28 05:34:48;;;;;;;3.43;1.30;;;8.50;99.90;;;;;;4972068;28;20030;-84
2023/10/28 05:37:13;;;;;;;2.93;1.00;;;8.50;99.90;;;;;;4973490;28;20034;-84
2023/10/28 05:39:40;;;;;;;1.07;0.87;;;8.50;99.90;;;;;;4972890;28;20148;-84
2023/10/28 05:42:06;;;;;;;2.37;0.90;;;8.50;99.90;;;;;;4970306;28;20134;-84
2023/10/28 05:44:32;;;;;;;4.97;1.00;;;8.50;99.90;;;;;;4970890;28;20034;-84
2023/10/28 05:47:01;;;;;;;1.50;1.00;;;8.50;99.90;;;;;;4971086;28;20037;-85
2023/10/28 05:49:27;;;;;;;3.33;0.90;;;8.50;99.90;;;;;;4971018;28;20076;-84
2023/10/28 05:51:52;;;;;;;1.97;0.90;;;8.50;99.90;;;;;;4965407;28;20466;-79
2023/10/28 05:54:18;;;;;;;5.97;0.90;;;8.50;99.90;;;;;;4965659;28;20027;-79
2023/10/28 05:56:44;;;;;;;3.47;0.87;;;8.50;99.90;;;;;;4964075;28;20030;-79
2023/10/28 05:59:10;;;;;;;1.90;1.00;;;8.50;99.90;;;;;;4964095;28;20090;-89
2023/10/28 06:01:36;;;;;;;2.37;0.90;;;8.40;99.90;;;;;;4970916;28;20038;-84
2023/10/28 06:04:02;;;;;;;2.07;1.00;;;8.40;99.90;;;;;;4971814;28;20042;-85
2023/10/28 06:06:27;;;;;;;3.17;1.03;;;8.40;99.90;;;;;;4973489;28;20034;-84
2023/10/28 06:08:53;;;;;;;2.77;1.10;;;8.40;99.90;;;;;;4972151;28;20052;-83
2023/10/28 06:11:19;;;;;;;2.13;1.00;;;8.40;99.90;;;;;;4970707;28;20034;-84
2023/10/28 06:13:45;;;;;;;2.17;1.00;;;8.40;99.90;;;;;;4967943;28;20069;-84
2023/10/28 06:16:11;;;;;;;2.33;0.97;;;8.30;99.90;;;;;;4969577;28;20042;-84
2023/10/28 06:18:37;;;;;;;1.73;1.00;;;8.30;99.90;;;;;;4968763;28;20106;-84
2023/10/28 06:21:03;;;;;;;5.07;1.27;;;8.40;99.90;;;;;;4970505;28;20035;-84
2023/10/28 06:23:29;;;;;;;2.87;1.67;;;8.30;99.90;;;;;;4970684;28;20792;-84
2023/10/28 06:25:55;;;;;;;5.07;1.20;;;8.30;99.90;;;;;;4970430;28;20038;-84
2023/10/28 06:28:21;;;;;;;1.77;1.03;;;8.30;99.90;;;;;;4970179;28;20066;-84
2023/10/28 06:30:48;;;;;;;1.83;1.00;;;8.30;99.90;;;;;;4973716;28;20565;-84
2023/10/28 06:33:13;;;;;;;3.40;1.20;;;8.30;99.90;;;;;;4973502;28;20026;-84
2023/10/28 06:35:39;;;;;;;1.50;0.87;;;8.30;99.90;;;;;;4971029;28;20037;-84
2023/10/28 06:38:06;;;;;;;1.90;0.87;;;8.30;99.90;;;;;;4972134;28;20026;-84
2023/10/28 06:40:32;;;;;;;2.67;1.10;;;8.30;99.90;;;;;;4972359;28;20026;-84
2023/10/28 06:42:57;;;;;;;3.10;0.93;;;8.40;99.90;;;;;;4970881;28;20023;-84
2023/10/28 06:45:23;;;;;;;5.03;1.30;;;8.40;99.90;;;;;;4968760;28;20051;-84
2023/10/28 06:47:50;;;;;;;1.50;0.83;;;8.40;99.90;;;;;;4968533;28;20059;-84
2023/10/28 06:50:19;;;;;;;2.27;1.00;;;8.40;99.90;;;;;;4966573;28;20041;-84
2023/10/28 06:52:50;;;;;;;2.67;0.90;;;8.50;99.90;;;;;;4966362;28;20654;-82
2023/10/28 06:55:17;;;;;;;2.33;1.00;;;8.50;99.90;;;;;;4967985;28;20943;-84
2023/10/28 06:57:44;;;;;;;4.80;1.13;;;8.60;99.90;;;;;;4969963;28;20030;-85
2023/10/28 07:00:14;;;;;;;2.23;0.87;;;8.60;99.90;;;;;;4969926;28;20525;-84
2023/10/28 07:02:42;;;;;;;2.20;1.00;;;8.70;99.90;;;;;;4971153;28;20030;-84
2023/10/28 07:05:10;;;;;;;1.77;1.20;;;8.80;99.90;;;;;;4969485;28;20426;-83
2023/10/28 07:07:36;;;;;;;1.70;0.90;;;8.80;99.90;;;;;;4969319;28;20035;-83
2023/10/28 07:10:02;;;;;;;3.27;0.90;;;8.80;99.90;;;;;;4969983;28;20062;-83
2023/10/28 07:12:30;;;;;;;2.33;1.00;;;8.90;99.90;;;;;;4970619;28;20062;-83
2023/10/28 07:14:56;;;;;;;2.63;0.70;;;8.90;99.90;;;;;;4970078;28;20023;-84
2023/10/28 07:17:22;;;;;;;2.53;1.17;;;9.00;99.90;;;;;;4971263;28;20030;-84
2023/10/28 07:19:48;;;;;;;3.27;1.00;;;9.10;99.90;;;;;;4971354;28;20023;-84
2023/10/28 07:22:16;;;;;;;1.60;0.90;;;9.20;99.90;;;;;;4971021;28;20038;-84
2023/10/28 07:24:42;;;;;;;2.30;1.10;;;9.30;99.90;;;;;;4971831;28;20077;-85
2023/10/28 07:27:08;;;;;;;2.00;0.93;;;9.40;99.90;;;;;;4969879;28;20062;-84
2023/10/28 07:29:34;;;;;;;1.63;0.87;;;9.40;99.90;;;;;;4970158;28;20062;-85
2023/10/28 07:32:00;;;;;;;2.30;1.03;;;9.50;99.90;;;;;;4969959;28;20098;-84
2023/10/28 07:34:26;;;;;;;1.73;1.07;;;9.60;99.90;;;;;;4970161;28;20058;-84
2023/10/28 07:36:51;;;;;;;3.07;0.83;;;9.70;99.90;;;;;;4971236;28;20477;-83
2023/10/28 07:39:17;;;;;;;2.70;1.00;;;9.80;99.90;;;;;;4971622;28;20094;-84
2023/10/28 07:41:42;;;;;;;1.90;1.00;;;9.90;99.90;;;;;;4972099;28;20038;-83
2023/10/28 07:44:08;;;;;;;3.40;1.00;;;10.00;99.90;;;;;;4972896;28;20051;-85
2023/10/28 07:46:34;;;;;;;2.17;0.88;;;10.00;99.90;;;;;;4970638;28;20046;-86
2023/10/28 07:49:00;;;;;;;5.05;1.20;;;10.10;99.90;;;;;;4985355;28;20045;-85
2023/10/28 07:51:26;;;;;;;2.20;0.90;;;10.10;99.90;;;;;;4990247;28;20055;-88
2023/10/28 07:53:52;;;;;;;2.55;0.93;;;10.30;99.90;;;;;;4976019;28;20039;-85
2023/10/28 07:56:18;;;;;;;6.03;1.60;;;10.30;99.90;;;;;;4970590;28;20030;-90
2023/10/28 07:58:47;;;;;;;2.40;1.10;;;10.40;99.90;;;;;;4965671;28;20517;-87
2023/10/28 08:01:22;;;;;;;3.63;1.20;;;10.40;99.90;;;;;;4963790;28;20053;-87
2023/10/28 08:03:47;;;;;;;1.60;0.80;;;10.60;99.90;;;;;;4963602;28;20042;-86
2023/10/28 08:06:13;;;;;;;2.25;0.93;;;10.70;99.90;;;;;;4964397;28;20042;-86
2023/10/28 08:08:40;;;;;;;1.98;0.70;;;11.00;99.90;;;;;;4963824;28;20038;-85
2023/10/28 08:11:06;;;;;;;1.23;0.90;;;11.10;99.90;;;;;;4965192;28;20098;-85
2023/10/28 08:13:37;;;;;;;1.40;1.00;;;11.20;99.90;;;;;;4964198;28;20030;-86
2023/10/28 08:16:03;;;;;;;2.78;0.90;;;11.30;99.90;;;;;;4962775;28;20039;-87
2023/10/28 08:18:31;;;;;;;1.83;0.73;;;11.40;99.90;;;;;;4963694;28;20034;-87
2023/10/28 08:20:57;;;;;;;1.60;0.80;;;11.40;99.90;;;;;;4964105;28;20031;-87
2023/10/28 08:23:23;;;;;;;2.50;0.75;;;11.40;99.90;;;;;;4968187;28;20082;-87
2023/10/28 08:25:49;;;;;;;1.65;0.90;;;11.40;99.90;;;;;;4967839;28;20030;-87
2023/10/28 08:28:16;;;;;;;2.88;0.90;;;11.40;99.90;;;;;;4969525;28;20066;-88
2023/10/28 08:30:41;;;;;;;2.72;1.20;;;11.50;99.90;;;;;;4970677;28;20026;-89
2023/10/28 08:33:07;;;;;;;1.25;0.80;;;11.70;99.90;;;;;;4969889;28;20370;-91
2023/10/28 08:35:33;;;;;;;2.42;0.75;;;11.90;99.90;;;;;;4971413;28;20477;-85
2023/10/28 08:38:05;;;;;;;2.60;1.08;;;12.00;99.90;;;;;;4969698;28;21562;-90
2023/10/28 08:40:33;;;;;;;3.33;0.80;;;12.10;99.90;;;;;;4969441;28;20035;-88
2023/10/28 08:42:59;;;;;;;2.75;0.80;;;12.30;99.90;;;;;;4949210;28;20453;-88
2023/10/28 08:45:26;;;;;;;2.85;0.98;;;12.50;99.90;;;;;;4968107;28;20030;-88
2023/10/28 08:47:53;;;;;;;1.88;0.90;;;12.70;99.90;;;;;;4968167;28;20047;-90
2023/10/28 08:50:24;;;;;;;2.15;0.80;;;12.80;99.90;;;;;;4969270;28;20062;-90
2023/10/28 08:52:54;;;;;;;4.22;0.90;;;13.00;99.90;;;;;;4968172;28;20031;-90
2023/10/28 08:55:21;;;;;;;2.08;0.70;;;13.20;99.90;;;;;;4967306;28;20208;-87
2023/10/28 08:57:46;;;;;;;1.38;0.60;;;13.30;99.90;;;;;;4970764;28;20026;-86
2023/10/28 09:00:17;;;;;;;2.75;1.00;;;13.40;99.90;;;;;;4972973;28;20015;-85
2023/10/28 09:02:51;;;;;;;1.08;0.60;;;13.60;99.90;;;;;;4973046;28;20410;-91
2023/10/28 09:05:17;;;;;;;3.53;1.25;;;13.40;99.90;;;;;;4971601;28;20031;-88
2023/10/28 09:07:43;;;;;;;1.92;0.75;;;13.30;99.90;;;;;;4975386;28;20045;-88
2023/10/28 09:10:13;;;;;;;3.00;1.08;;;13.30;99.90;;;;;;4974076;28;20247;-84
2023/10/28 09:12:39;;;;;;;3.60;1.10;;;13.20;99.90;;;;;;4974952;28;20124;-84
2023/10/28 09:15:08;;;;;;;2.40;0.80;;;13.20;99.90;;;;;;4968063;28;20161;-85
2023/10/28 09:17:35;;;;;;;2.35;1.02;;;13.20;99.90;;;;;;4969928;28;20037;-82
2023/10/28 09:20:05;;;;;;;4.20;0.98;;;13.10;99.90;;;;;;4970067;28;20026;-85
2023/10/28 09:22:31;;;;;;;2.25;0.77;;;13.10;99.90;;;;;;4968228;28;20046;-83
2023/10/28 09:24:57;;;;;;;2.15;0.90;;;13.10;99.90;;;;;;4969915;28;20026;-84
2023/10/28 09:27:22;;;;;;;7.32;1.45;;;13.10;99.90;;;;;;4970787;28;20093;-83
2023/10/28 09:29:48;;;;;;;2.20;0.80;;;13.00;99.90;;;;;;4968516;28;20038;-85
2023/10/28 09:32:14;;;;;;;2.03;0.80;;;13.00;99.90;;;;;;4968750;28;20125;-84
2023/10/28 09:34:41;;;;;;;2.45;1.00;;;13.10;99.90;;;;;;4969369;28;20030;-84
2023/10/28 09:37:09;;;;;;;3.58;1.05;;;13.20;99.90;;;;;;4969199;28;20063;-85
2023/10/28 09:39:36;;;;;;;2.58;0.80;;;13.20;99.90;;;;;;4970261;28;20113;-83
2023/10/28 09:42:03;;;;;;;4.25;1.05;;;13.30;99.90;;;;;;4969670;28;21358;-85
2023/10/28 09:44:29;;;;;;;3.38;0.80;;;13.40;99.90;;;;;;4970137;28;20035;-84
2023/10/28 09:46:59;;;;;;;4.15;1.08;;;13.50;99.90;;;;;;4969361;28;20035;-85
2023/10/28 09:49:29;;;;;;;4.10;1.05;;;13.50;99.90;;;;;;4969889;28;20800;-83
2023/10/28 09:51:59;;;;;;;2.55;0.80;;;13.50;99.90;;;;;;4969724;28;20520;-82
2023/10/28 09:54:32;;;;;;;5.65;1.13;;;13.50;99.90;;;;;;4971232;28;20037;-83
2023/10/28 09:56:59;;;;;;;2.22;0.80;;;13.50;99.90;;;;;;4970662;28;20494;-83
2023/10/28 09:59:27;;;;;;;7.03;1.10;;;13.60;99.90;;;;;;4969845;28;20057;-81
2023/10/28 10:02:17;;;;;;;6.13;1.90;;;13.60;99.90;;;;;;4970039;28;20044;-84
2023/10/28 10:04:55;;;;;;;16.73;2.50;;;13.70;99.90;;;;;;4967806;28;20037;-82
2023/10/28 10:07:22;;;;;;;14.23;2.72;;;13.70;99.90;;;;;;4967720;28;20035;-83
2023/10/28 10:09:47;;;;;;;3.10;1.42;;;13.90;99.90;;;;;;4971661;28;20062;-83
2023/10/28 10:12:13;;;;;;;3.03;0.82;;;14.00;99.90;;;;;;4969121;28;20026;-89
2023/10/28 10:14:50;;;;;;;25.55;2.05;;;14.10;99.90;;;;;;4965333;28;20033;-82
2023/10/28 10:17:31;;;;;;;6.18;1.27;;;14.10;99.90;;;;;;4969293;28;20381;-86
2023/10/28 10:20:04;;;;;;;2.30;0.80;;;14.20;99.90;;;;;;4967572;28;20556;-85
2023/10/28 10:22:30;;;;;;;5.47;1.17;;;14.30;99.90;;;;;;4969894;28;20030;-84
2023/10/28 10:24:55;;;;;;;3.75;1.00;;;14.30;99.90;;;;;;4970476;28;20057;-85
2023/10/28 10:27:44;;;;;;;2.30;0.90;;;14.40;99.90;;;;;;4972931;28;20701;-83
2023/10/28 10:30:10;;;;;;;3.70;0.93;;;14.50;99.90;;;;;;4971871;28;20030;-83
2023/10/28 10:32:50;;;;;;;4.38;1.38;;;14.50;99.90;;;;;;4972664;28;20031;-82
2023/10/28 10:35:36;;;;;;;1.65;0.88;;;14.60;99.90;;;;;;4970557;28;20023;-81
2023/10/28 10:38:05;;;;;;;2.17;1.05;;;14.70;99.90;;;;;;4971172;28;20146;-81
2023/10/28 10:40:32;;;;;;;2.60;1.10;;;14.70;99.90;;;;;;4972179;28;20049;-81
2023/10/28 10:43:09;;;;;;;2.95;1.00;;;14.70;99.90;;;;;;4974051;28;20103;-82
2023/10/28 10:45:35;;;;;;;3.28;0.90;;;14.70;99.90;;;;;;4978176;28;20022;-80
2023/10/28 10:48:03;;;;;;;3.20;1.17;;;14.70;99.90;;;;;;4983475;28;20031;-80
2023/10/28 10:50:31;;;;;;;2.42;0.88;;;14.70;99.90;;;;;;4982672;28;20073;-80
2023/10/28 10:52:57;;;;;;;2.45;0.90;;;14.70;99.90;;;;;;4969383;28;20022;-81
2023/10/28 10:55:23;;;;;;;1.58;0.80;;;14.70;99.90;;;;;;4968757;28;20130;-80
2023/10/28 10:57:52;;;;;;;2.25;1.02;;;14.80;99.90;;;;;;4969322;28;20054;-85
2023/10/28 11:00:18;;;;;;;4.95;0.90;;;14.90;99.90;;;;;;4968092;28;20031;-80
2023/10/28 11:02:45;;;;;;;5.00;1.00;;;15.00;99.90;;;;;;4967056;28;20041;-79
2023/10/28 11:05:12;;;;;;;1.75;0.85;;;15.30;99.90;;;;;;4967638;28;20113;-82
2023/10/28 11:07:38;;;;;;;2.40;0.98;;;15.30;99.90;;;;;;4967368;28;20046;-81
2023/10/28 11:10:10;;;;;;;3.20;1.10;;;15.50;99.90;;;;;;4968226;28;20433;-81
2023/10/28 11:12:39;;;;;;;2.80;1.23;;;15.60;99.90;;;;;;4968162;28;20039;-81
2023/10/28 11:15:06;;;;;;;5.35;1.10;;;15.60;99.90;;;;;;4966484;28;20188;-81
2023/10/28 11:17:31;;;;;;;2.70;0.80;;;15.70;99.90;;;;;;4968664;28;20657;-81
2023/10/28 11:20:03;;;;;;;2.88;1.08;;;15.70;99.90;;;;;;4967142;28;20039;-81
2023/10/28 11:22:29;;;;;;;5.03;1.20;;;15.70;99.90;;;;;;4964442;28;20034;-77
2023/10/28 11:25:03;;;;;;;2.50;1.20;;;15.80;99.90;;;;;;4957244;28;20042;-77
2023/10/28 11:27:29;;;;;;;4.10;1.45;;;16.00;99.90;;;;;;4958157;28;20031;-76
2023/10/28 11:29:56;;;;;;;4.88;1.55;;;16.10;99.90;;;;;;4958508;28;20525;-76
2023/10/28 11:32:23;;;;;;;2.35;0.80;;;16.20;99.90;;;;;;4955842;28;21640;-78
2023/10/28 11:34:48;;;;;;;4.82;1.08;;;16.30;99.90;;;;;;4956587;28;20034;-77
2023/10/28 11:37:15;;;;;;;2.85;1.10;;;16.40;99.90;;;;;;4958425;28;20026;-80
2023/10/28 11:39:44;;;;;;;3.17;1.10;;;16.40;99.90;;;;;;4958712;28;20034;-76
2023/10/28 11:42:15;;;;;;;3.60;1.00;;;16.40;99.90;;;;;;4958656;28;20035;-77
2023/10/28 11:44:46;;;;;;;6.25;1.55;;;16.40;99.90;;;;;;4956442;28;20812;-75
2023/10/28 11:47:12;;;;;;;3.35;1.10;;;16.40;99.90;;;;;;4958241;28;20502;-77
2023/10/28 11:49:38;;;;;;;5.20;1.42;;;16.30;99.90;;;;;;4958259;28;20050;-78
2023/10/28 11:52:04;;;;;;;3.38;1.08;;;16.30;99.90;;;;;;4959106;28;20034;-79
2023/10/28 11:54:29;;;;;;;4.22;1.52;;;16.30;99.90;;;;;;4956276;28;20035;-79
2023/10/28 11:56:56;;;;;;;3.38;1.00;;;16.40;99.90;;;;;;4960345;28;20034;-84
2023/10/28 11:59:22;;;;;;;2.53;1.08;;;16.50;99.90;;;;;;4960622;28;20041;-84
2023/10/28 12:01:47;;;;;;;4.63;1.45;;;16.60;99.90;;;;;;4942463;28;20042;-84
2023/10/28 12:04:13;;;;;;;3.88;1.25;;;16.60;99.90;;;;;;4959045;28;20031;-85
2023/10/28 12:06:39;;;;;;;3.22;1.10;;;16.60;99.90;;;;;;4959934;28;20023;-86
2023/10/28 12:09:04;;;;;;;10.38;1.27;;;16.70;99.90;;;;;;4960048;28;20038;-84
2023/10/28 12:11:31;;;;;;;3.58;1.10;;;16.80;99.90;;;;;;4958419;28;20081;-84
2023/10/28 12:13:57;;;;;;;4.45;1.33;;;16.90;99.90;;;;;;4956841;28;20031;-85
2023/10/28 12:16:23;;;;;;;4.65;1.27;;;17.00;99.90;;;;;;4959720;28;20137;-85
2023/10/28 12:18:49;;;;;;;5.43;1.08;;;17.00;99.90;;;;;;4960178;28;20220;-85
2023/10/28 12:21:17;;;;;;;6.00;1.67;;;17.10;99.90;;;;;;4961154;28;20030;-80
2023/10/28 12:23:43;;;;;;;7.05;1.70;;;17.00;99.90;;;;;;4959235;28;20027;-84
2023/10/28 12:26:10;;;;;;;4.95;1.20;;;16.90;99.90;;;;;;4959955;28;20497;-83
2023/10/28 12:28:36;;;;;;;6.88;1.33;;;16.70;99.90;;;;;;4960631;28;21602;-82
2023/10/28 12:31:03;;;;;;;3.00;1.20;;;16.60;99.90;;;;;;4959968;28;20117;-83
2023/10/28 12:33:29;;;;;;;2.63;0.90;;;16.50;99.90;;;;;;4966740;28;20027;-82
2023/10/28 12:35:55;;;;;;;6.30;1.50;;;16.50;99.90;;;;;;4965839;28;20042;-80
2023/10/28 12:38:21;;;;;;;3.80;1.25;;;16.50;99.90;;;;;;4965104;28;20080;-80
2023/10/28 12:40:46;;;;;;;4.20;1.58;;;16.50;99.90;;;;;;4966519;28;20027;-82
2023/10/28 12:43:12;;;;;;;4.70;1.30;;;16.60;99.90;;;;;;4964173;28;20042;-80
2023/10/28 12:45:38;;;;;;;5.50;1.35;;;16.60;99.90;;;;;;4966083;28;20099;-81
2023/10/28 12:48:04;;;;;;;3.97;1.10;;;16.60;99.90;;;;;;4966060;28;20031;-82
2023/10/28 12:50:30;;;;;;;5.80;1.50;;;16.60;99.90;;;;;;4966574;28;20038;-81